createdAt,value
2023-01-04T00:02:22.109Z,1.80
2023-01-04T00:06:06.791Z,1.88
2023-01-04T00:09:48.755Z,1.70
2023-01-04T00:13:31.776Z,1.40
2023-01-04T00:17:13.714Z,1.30
2023-01-04T00:20:55.665Z,1.40
2023-01-04T00:24:37.698Z,1.63
2023-01-04T00:28:19.607Z,1.52
2023-01-04T00:32:01.544Z,1.80
2023-01-04T00:35:46.216Z,1.40
2023-01-04T00:39:29.487Z,2.22
2023-01-04T00:43:11.440Z,1.63
2023-01-04T00:46:53.947Z,1.55
2023-01-04T00:50:35.964Z,2.55
2023-01-04T00:54:18.236Z,1.70
2023-01-04T00:58:00.233Z,1.75
2023-01-04T01:01:42.667Z,1.88
2023-01-04T01:05:24.720Z,1.95
2023-01-04T01:09:06.749Z,2.25
2023-01-04T01:12:48.803Z,1.83
2023-01-04T01:20:32.751Z,2.88
2023-01-04T01:24:17.484Z,2.50
2023-01-04T01:27:59.472Z,2.40
2023-01-04T01:31:42.141Z,2.20
2023-01-04T01:35:24.277Z,2.10
2023-01-04T01:39:06.893Z,1.98
2023-01-04T01:42:48.945Z,2.08
2023-01-04T01:46:44.094Z,2.65
2023-01-04T01:50:31.662Z,2.30
2023-01-04T01:54:31.867Z,2.45
2023-01-04T01:58:23.327Z,1.95
2023-01-04T02:02:05.707Z,1.67
2023-01-04T02:05:54.726Z,1.48
2023-01-04T02:09:37.460Z,1.38
2023-01-04T02:13:23.603Z,1.75
2023-01-04T02:17:09.193Z,1.90
2023-01-04T02:21:13.637Z,1.52
2023-01-04T02:25:22.598Z,1.13
2023-01-04T02:29:46.309Z,1.05
2023-01-04T02:33:37.164Z,1.00
2023-01-04T02:37:26.595Z,1.38
2023-01-04T02:41:27.079Z,1.10
2023-01-04T02:45:09.580Z,1.05
2023-01-04T02:49:10.222Z,1.35
2023-01-04T02:52:52.186Z,0.80
2023-01-04T02:56:53.011Z,0.80
2023-01-04T03:01:22.457Z,0.93
2023-01-04T03:05:29.099Z,0.90
2023-01-04T03:09:21.846Z,1.10
2023-01-04T03:13:15.959Z,1.00
2023-01-04T03:16:59.220Z,0.90
2023-01-04T03:20:44.548Z,1.50
2023-01-04T03:24:45.236Z,1.40
2023-01-04T03:28:51.374Z,1.00
2023-01-04T03:32:58.972Z,1.10
2023-01-04T03:36:47.216Z,1.25
2023-01-04T03:40:51.311Z,1.48
2023-01-04T03:45:11.776Z,1.25
2023-01-04T03:48:57.468Z,1.40
2023-01-04T03:52:41.299Z,1.35
2023-01-04T03:56:24.869Z,1.30
2023-01-04T04:00:14.664Z,1.42
2023-01-04T04:04:15.734Z,1.23
2023-01-04T04:08:16.458Z,1.15
2023-01-04T04:11:58.982Z,2.05
2023-01-04T04:15:41.039Z,1.33
2023-01-04T04:19:23.028Z,1.67
2023-01-04T04:23:05.301Z,1.60
2023-01-04T04:26:47.250Z,1.45
2023-01-04T04:30:29.139Z,1.45
2023-01-04T04:34:11.858Z,1.20
2023-01-04T04:37:53.801Z,1.05
2023-01-04T04:41:38.796Z,1.35
2023-01-04T04:45:20.761Z,1.23
2023-01-04T04:49:02.881Z,1.38
2023-01-04T04:52:44.839Z,1.42
2023-01-04T04:56:26.883Z,1.63
2023-01-04T05:00:09.387Z,1.80
2023-01-04T05:03:51.344Z,1.08
2023-01-04T05:07:33.324Z,1.20
2023-01-04T05:11:15.369Z,0.80
2023-01-04T05:14:57.326Z,0.68
2023-01-04T05:18:39.291Z,0.60
2023-01-04T05:22:21.217Z,0.73
2023-01-04T05:26:03.957Z,0.65
2023-01-04T05:30:04.697Z,0.50
2023-01-04T05:33:46.615Z,0.60
2023-01-04T05:37:28.573Z,0.43
2023-01-04T05:41:29.475Z,0.40
2023-01-04T05:45:11.775Z,0.40
2023-01-04T05:48:53.746Z,0.47
2023-01-04T05:52:36.319Z,0.43
2023-01-04T05:56:18.251Z,0.40
2023-01-04T06:00:00.197Z,0.25
2023-01-04T06:03:42.274Z,0.20
2023-01-04T06:07:24.972Z,0.20
2023-01-04T06:11:06.910Z,0.20
2023-01-04T06:14:48.910Z,0.20
2023-01-04T06:18:30.865Z,0.35
2023-01-04T06:22:12.817Z,0.38
2023-01-04T06:25:54.783Z,0.30
2023-01-04T06:29:36.770Z,0.30
2023-01-04T06:33:18.794Z,0.52
2023-01-04T06:37:00.804Z,0.65
2023-01-04T06:40:42.743Z,0.73
2023-01-04T06:44:24.714Z,0.50
2023-01-04T06:48:09.191Z,0.52
2023-01-04T06:51:51.458Z,0.80
2023-01-04T06:55:33.543Z,0.93
2023-01-04T06:59:15.539Z,0.75
2023-01-04T07:03:13.296Z,0.80
2023-01-04T07:06:58.011Z,1.00
2023-01-04T07:10:40.689Z,0.90
2023-01-04T07:14:22.699Z,1.23
2023-01-04T07:18:04.789Z,1.13
2023-01-04T07:21:46.812Z,1.40
2023-01-04T07:25:28.777Z,2.08
2023-01-04T07:29:14.536Z,1.60
2023-01-04T07:32:56.982Z,1.90
2023-01-04T07:36:40.018Z,2.10
2023-01-04T07:40:22.024Z,1.63
2023-01-04T07:44:04.775Z,1.38
2023-01-04T07:47:46.732Z,1.90
2023-01-04T07:51:30.648Z,1.45
2023-01-04T07:55:12.650Z,1.70
2023-01-04T07:58:57.572Z,1.80
2023-01-04T08:02:39.651Z,2.55
2023-01-04T08:06:22.377Z,1.80
2023-01-04T08:10:04.703Z,1.77
2023-01-04T08:13:46.679Z,2.10
2023-01-04T08:17:28.641Z,2.40
2023-01-04T08:21:10.671Z,2.28
2023-01-04T08:24:52.678Z,2.10
2023-01-04T08:28:35.422Z,1.67
2023-01-04T08:32:17.434Z,2.38
2023-01-04T08:36:26.596Z,1.88
2023-01-04T08:40:10.237Z,2.20
2023-01-04T08:43:52.271Z,1.98
2023-01-04T08:47:34.475Z,1.90
2023-01-04T08:51:17.202Z,1.80
2023-01-04T08:54:59.206Z,2.50
2023-01-04T08:58:41.226Z,2.08
2023-01-04T09:02:26.319Z,2.05
2023-01-04T09:06:13.576Z,2.75
2023-01-04T09:09:55.584Z,2.00
2023-01-04T09:13:37.981Z,2.30
2023-01-04T09:17:22.127Z,2.10
2023-01-04T09:21:13.390Z,2.88
2023-01-04T09:24:55.405Z,2.53
2023-01-04T09:28:38.414Z,2.58
2023-01-04T09:32:20.359Z,2.78
2023-01-04T09:36:06.967Z,2.50
2023-01-04T09:39:49.448Z,2.60
2023-01-04T09:43:56.835Z,2.90
2023-01-04T09:47:59.084Z,2.00
2023-01-04T09:51:46.997Z,2.42
2023-01-04T09:55:48.196Z,3.17
2023-01-04T09:59:32.761Z,2.35
2023-01-04T10:03:25.583Z,2.65
2023-01-04T10:07:31.160Z,2.15
2023-01-04T10:11:22.450Z,2.17
2023-01-04T10:15:36.011Z,2.40
2023-01-04T10:21:10.369Z,2.90
2023-01-04T10:23:25.847Z,2.83
2023-01-04T10:27:43.720Z,2.83
2023-01-04T10:35:25.913Z,2.80
2023-01-04T10:39:22.618Z,2.92
2023-01-04T10:44:10.716Z,3.00
2023-01-04T10:47:47.583Z,2.60
2023-01-04T10:51:39.883Z,3.50
2023-01-04T10:56:23.490Z,3.40
2023-01-04T11:00:08.395Z,2.45
2023-01-04T11:04:21.983Z,3.25
2023-01-04T11:08:18.880Z,3.30
2023-01-04T11:12:02.285Z,2.67
2023-01-04T11:15:45.548Z,3.05
2023-01-04T11:19:29.850Z,3.20
2023-01-04T11:23:19.725Z,2.85
2023-01-04T11:27:11.407Z,2.83
2023-01-04T11:31:02.014Z,2.65
2023-01-04T11:34:49.757Z,3.00
2023-01-04T11:38:31.779Z,3.33
2023-01-04T11:42:21.191Z,3.20
2023-01-04T11:46:18.062Z,2.60
2023-01-04T11:50:00.077Z,2.88
2023-01-04T11:53:42.297Z,3.38
2023-01-04T11:57:24.335Z,3.22
2023-01-04T12:01:06.691Z,3.35
2023-01-04T12:04:50.337Z,3.22
2023-01-04T12:08:35.977Z,3.45
2023-01-04T12:12:18.044Z,3.25
2023-01-04T12:16:31.542Z,2.85
2023-01-04T12:20:19.608Z,3.53
2023-01-04T12:24:06.061Z,3.08
2023-01-04T12:27:50.149Z,3.27
2023-01-04T12:31:33.818Z,3.28
2023-01-04T12:35:53.675Z,3.25
2023-01-04T12:39:43.535Z,3.13
2023-01-04T12:43:27.306Z,3.25
2023-01-04T12:47:36.747Z,3.33
2023-01-04T12:51:33.213Z,2.83
2023-01-04T12:55:37.707Z,3.28
2023-01-04T12:59:52.397Z,2.72
2023-01-04T13:03:36.582Z,3.47
2023-01-04T13:07:43.549Z,2.60
2023-01-04T13:11:51.271Z,3.00
2023-01-04T13:15:52.188Z,2.78
2023-01-04T13:19:38.136Z,2.67
2023-01-04T13:23:20.298Z,2.70
2023-01-04T13:27:07.582Z,2.60
2023-01-04T13:30:51.015Z,2.15
2023-01-04T13:34:37.351Z,2.83
2023-01-04T13:38:19.382Z,3.22
2023-01-04T13:42:02.281Z,2.97
2023-01-04T13:46:11.655Z,3.65
2023-01-04T13:49:53.782Z,3.60
2023-01-04T13:53:35.976Z,3.95
2023-01-04T13:57:22.285Z,2.63
2023-01-04T14:01:19.736Z,3.28
2023-01-04T14:05:01.989Z,3.00
2023-01-04T14:09:07.510Z,3.38
2023-01-04T14:12:49.525Z,2.80
2023-01-04T14:16:31.489Z,3.38
2023-01-04T14:20:13.442Z,2.50
2023-01-04T14:23:55.401Z,2.95
2023-01-04T14:27:43.094Z,3.03
2023-01-04T14:31:32.420Z,3.03
2023-01-04T14:35:15.202Z,2.40
2023-01-04T14:39:18.679Z,2.60
2023-01-04T14:43:00.690Z,2.50
2023-01-04T14:46:47.111Z,2.20
2023-01-04T14:50:29.256Z,2.35
2023-01-04T14:54:15.291Z,2.72
2023-01-04T14:57:59.528Z,3.40
2023-01-04T15:01:41.616Z,2.20
2023-01-04T15:05:23.639Z,3.17
2023-01-04T15:09:05.625Z,3.38
2023-01-04T15:12:47.629Z,2.63
2023-01-04T15:16:29.681Z,3.28
2023-01-04T15:20:12.096Z,3.20
2023-01-04T15:23:54.140Z,3.15
2023-01-04T15:27:41.968Z,2.40
2023-01-04T15:31:31.176Z,4.38
2023-01-04T15:35:17.113Z,3.10
2023-01-04T15:38:59.209Z,3.15
2023-01-04T15:42:59.470Z,2.75
2023-01-04T15:46:41.590Z,2.88
2023-01-04T15:50:23.736Z,2.90
2023-01-04T15:54:05.770Z,2.53
2023-01-04T15:57:47.731Z,3.00
2023-01-04T16:01:29.924Z,3.25
2023-01-04T16:05:12.039Z,2.45
2023-01-04T16:08:53.999Z,3.17
2023-01-04T16:12:41.761Z,2.67
2023-01-04T16:16:30.009Z,3.45
2023-01-04T16:20:14.250Z,3.38
2023-01-04T16:24:05.580Z,3.08
2023-01-04T16:27:51.359Z,3.70
2023-01-04T16:31:34.889Z,4.20
2023-01-04T16:35:17.014Z,3.60
2023-01-04T16:38:58.992Z,3.15
2023-01-04T16:42:41.105Z,3.35
2023-01-04T16:46:27.538Z,3.22
2023-01-04T16:50:11.206Z,3.00
2023-01-04T16:53:54.931Z,3.25
2023-01-04T16:57:36.887Z,3.38
2023-01-04T17:01:36.974Z,3.70
2023-01-04T17:05:20.413Z,3.50
2023-01-04T17:09:05.043Z,3.58
2023-01-04T17:12:48.415Z,3.88
2023-01-04T17:16:35.021Z,3.38
2023-01-04T17:20:17.438Z,3.50
2023-01-04T17:24:00.249Z,3.20
2023-01-04T17:27:42.246Z,3.75
2023-01-04T17:31:26.812Z,3.42
2023-01-04T17:35:08.956Z,4.07
2023-01-04T17:38:51.207Z,3.63
2023-01-04T17:42:33.875Z,3.80
2023-01-04T17:46:23.501Z,3.55
2023-01-04T17:50:06.160Z,3.83
2023-01-04T17:53:49.290Z,3.65
2023-01-04T17:57:33.055Z,4.07
2023-01-04T18:01:17.671Z,4.28
2023-01-04T18:04:59.915Z,3.58
2023-01-04T18:08:42.310Z,3.40
2023-01-04T18:12:24.388Z,3.47
2023-01-04T18:16:23.881Z,3.35
2023-01-04T18:20:07.586Z,3.70
2023-01-04T18:24:16.391Z,3.58
2023-01-04T18:27:52.743Z,3.70
2023-01-04T18:31:34.898Z,3.22
2023-01-04T18:35:17.062Z,3.25
2023-01-04T18:38:59.347Z,3.38
2023-01-04T18:42:45.314Z,4.00
2023-01-04T18:46:27.328Z,3.73
2023-01-04T18:50:10.203Z,3.40
2023-01-04T18:53:52.558Z,3.03
2023-01-04T18:57:34.644Z,4.18
2023-01-04T19:01:19.044Z,3.42
2023-01-04T19:05:01.426Z,4.25
2023-01-04T19:08:44.049Z,3.25
2023-01-04T19:12:26.109Z,3.88
2023-01-04T19:16:15.024Z,3.80
2023-01-04T19:19:57.059Z,3.42
2023-01-04T19:23:39.256Z,3.22
2023-01-04T19:27:21.209Z,3.30
2023-01-04T19:31:10.516Z,3.60
2023-01-04T19:34:52.543Z,3.28
2023-01-04T19:38:34.687Z,3.53
2023-01-04T19:42:16.667Z,3.50
2023-01-04T19:45:58.801Z,3.65
2023-01-04T19:49:40.821Z,3.63
2023-01-04T19:53:22.785Z,3.15
2023-01-04T19:57:04.768Z,3.70
2023-01-04T20:00:54.483Z,3.28
2023-01-04T20:04:37.101Z,4.00
2023-01-04T20:08:19.508Z,3.30
2023-01-04T20:12:01.586Z,3.10
2023-01-04T20:15:43.573Z,2.45
2023-01-04T20:19:25.598Z,2.83
2023-01-04T20:23:08.057Z,3.67
2023-01-04T20:26:50.042Z,3.38
2023-01-04T20:30:32.138Z,4.13
2023-01-04T20:34:14.521Z,3.30
2023-01-04T20:37:59.390Z,3.85
2023-01-04T20:42:01.300Z,2.55
2023-01-04T20:45:44.588Z,2.63
2023-01-04T20:49:26.738Z,2.75
2023-01-04T20:53:08.810Z,3.17
2023-01-04T20:56:50.775Z,2.50
2023-01-04T21:00:32.741Z,2.80
2023-01-04T21:04:16.355Z,2.67
2023-01-04T21:07:58.344Z,2.95
2023-01-04T21:11:41.661Z,3.08
2023-01-04T21:15:23.647Z,2.80
2023-01-04T21:19:05.587Z,3.00
2023-01-04T21:22:47.725Z,2.90
2023-01-04T21:26:29.803Z,3.75
2023-01-04T21:30:12.465Z,2.70
2023-01-04T21:33:54.858Z,2.55
2023-01-04T21:37:36.875Z,3.55
2023-01-04T21:41:19.669Z,2.97
2023-01-04T21:45:01.680Z,2.47
2023-01-04T21:48:44.868Z,3.28
2023-01-04T21:52:27.021Z,2.78
2023-01-04T21:56:13.536Z,3.00
2023-01-04T21:59:55.524Z,3.47
2023-01-04T22:03:37.549Z,2.80
2023-01-04T22:07:21.619Z,3.05
2023-01-04T22:11:04.955Z,3.50
2023-01-04T22:14:47.106Z,2.72
2023-01-04T22:18:29.068Z,2.63
2023-01-04T22:22:11.087Z,2.95
2023-01-04T22:25:56.442Z,3.03
2023-01-04T22:29:38.666Z,3.03
2023-01-04T22:33:20.872Z,3.95
2023-01-04T22:37:02.842Z,3.67
2023-01-04T22:40:45.065Z,2.92
2023-01-04T22:44:27.075Z,2.72
2023-01-04T22:48:09.692Z,2.92
2023-01-04T22:51:54.229Z,3.50
2023-01-04T22:56:17.064Z,3.33
2023-01-04T22:59:42.348Z,2.88
2023-01-04T23:03:24.438Z,3.40
2023-01-04T23:07:06.780Z,3.00
2023-01-04T23:10:48.806Z,2.95
2023-01-04T23:14:30.768Z,3.72
2023-01-04T23:18:12.720Z,2.85
2023-01-04T23:21:54.681Z,3.38
2023-01-04T23:25:36.648Z,3.08
2023-01-04T23:29:18.609Z,3.40
2023-01-04T23:33:00.673Z,2.72
2023-01-04T23:36:42.934Z,3.05
2023-01-04T23:40:24.878Z,2.65
2023-01-04T23:44:06.849Z,3.30
2023-01-04T23:47:49.081Z,3.28
2023-01-04T23:51:31.027Z,3.60
2023-01-04T23:55:12.941Z,2.88
2023-01-04T23:58:54.877Z,2.40
